sensor_id;sensor_type;location;lat;lon;timestamp;temperature;humidity
1225;DHT22;602;48.000;7.840;2023-02-08T00:02:14;2.20;99.90
1225;DHT22;602;48.000;7.840;2023-02-08T00:04:48;2.20;99.90
1225;DHT22;602;48.000;7.840;2023-02-08T00:07:19;2.30;99.90
1225;DHT22;602;48.000;7.840;2023-02-08T00:12:32;2.20;99.90
1225;DHT22;602;48.000;7.840;2023-02-08T00:15:04;2.30;99.90
1225;DHT22;602;48.000;7.840;2023-02-08T00:17:37;2.40;99.90
1225;DHT22;602;48.000;7.840;2023-02-08T00:20:07;2.40;99.90
1225;DHT22;602;48.000;7.840;2023-02-08T00:22:38;2.50;99.90
1225;DHT22;602;48.000;7.840;2023-02-08T00:25:08;2.50;99.90
1225;DHT22;602;48.000;7.840;2023-02-08T00:27:38;2.40;99.90
1225;DHT22;602;48.000;7.840;2023-02-08T00:30:13;2.40;99.90
1225;DHT22;602;48.000;7.840;2023-02-08T00:32:40;2.40;99.90
1225;DHT22;602;48.000;7.840;2023-02-08T00:35:09;2.40;99.90
1225;DHT22;602;48.000;7.840;2023-02-08T00:37:43;2.40;99.90
1225;DHT22;602;48.000;7.840;2023-02-08T00:40:18;2.50;99.90
1225;DHT22;602;48.000;7.840;2023-02-08T00:42:49;2.30;99.90
1225;DHT22;602;48.000;7.840;2023-02-08T00:45:20;2.30;99.90
1225;DHT22;602;48.000;7.840;2023-02-08T00:47:49;2.10;99.90
1225;DHT22;602;48.000;7.840;2023-02-08T00:50:25;2.00;99.90
1225;DHT22;602;48.000;7.840;2023-02-08T00:52:57;2.10;99.90
1225;DHT22;602;48.000;7.840;2023-02-08T00:55:25;2.20;99.90
1225;DHT22;602;48.000;7.840;2023-02-08T00:58:01;2.20;99.90
1225;DHT22;602;48.000;7.840;2023-02-08T01:03:22;2.30;99.90
1225;DHT22;602;48.000;7.840;2023-02-08T01:06:01;2.10;99.90
1225;DHT22;602;48.000;7.840;2023-02-08T01:11:19;2.10;99.90
1225;DHT22;602;48.000;7.840;2023-02-08T01:13:53;2.00;99.90
1225;DHT22;602;48.000;7.840;2023-02-08T01:16:28;2.00;99.90
1225;DHT22;602;48.000;7.840;2023-02-08T01:19:03;2.10;99.90
1225;DHT22;602;48.000;7.840;2023-02-08T01:21:38;2.10;99.90
1225;DHT22;602;48.000;7.840;2023-02-08T01:24:07;1.90;99.90
1225;DHT22;602;48.000;7.840;2023-02-08T01:26:39;1.90;99.90
1225;DHT22;602;48.000;7.840;2023-02-08T01:29:07;2.00;99.90
1225;DHT22;602;48.000;7.840;2023-02-08T01:31:36;2.10;99.90
1225;DHT22;602;48.000;7.840;2023-02-08T01:34:09;2.10;99.90
1225;DHT22;602;48.000;7.840;2023-02-08T01:36:44;2.00;99.90
1225;DHT22;602;48.000;7.840;2023-02-08T01:39:13;2.10;99.90
1225;DHT22;602;48.000;7.840;2023-02-08T01:41:44;2.10;99.90
1225;DHT22;602;48.000;7.840;2023-02-08T01:47:22;2.20;99.90
1225;DHT22;602;48.000;7.840;2023-02-08T01:49:52;2.10;99.90
1225;DHT22;602;48.000;7.840;2023-02-08T01:52:24;2.20;99.90
1225;DHT22;602;48.000;7.840;2023-02-08T01:54:55;2.20;99.90
1225;DHT22;602;48.000;7.840;2023-02-08T01:57:26;2.10;99.90
1225;DHT22;602;48.000;7.840;2023-02-08T02:02:58;2.00;99.90
1225;DHT22;602;48.000;7.840;2023-02-08T02:05:38;1.90;99.90
1225;DHT22;602;48.000;7.840;2023-02-08T02:08:13;1.80;99.90
1225;DHT22;602;48.000;7.840;2023-02-08T02:10:41;1.70;99.90
1225;DHT22;602;48.000;7.840;2023-02-08T02:13:16;1.70;99.90
1225;DHT22;602;48.000;7.840;2023-02-08T02:15:46;1.70;99.90
1225;DHT22;602;48.000;7.840;2023-02-08T02:18:21;1.40;99.90
1225;DHT22;602;48.000;7.840;2023-02-08T02:21:00;1.50;99.90
1225;DHT22;602;48.000;7.840;2023-02-08T02:24:02;1.50;99.90
1225;DHT22;602;48.000;7.840;2023-02-08T02:35:46;1.60;99.90
1225;DHT22;602;48.000;7.840;2023-02-08T02:38:39;1.60;99.90
1225;DHT22;602;48.000;7.840;2023-02-08T02:41:23;1.60;99.90
1225;DHT22;602;48.000;7.840;2023-02-08T02:44:11;1.70;99.90
1225;DHT22;602;48.000;7.840;2023-02-08T02:46:57;1.60;99.90
1225;DHT22;602;48.000;7.840;2023-02-08T02:49:33;1.50;99.90
1225;DHT22;602;48.000;7.840;2023-02-08T02:52:11;1.40;99.90
1225;DHT22;602;48.000;7.840;2023-02-08T02:54:50;1.40;99.90
1225;DHT22;602;48.000;7.840;2023-02-08T02:57:21;1.50;99.90
1225;DHT22;602;48.000;7.840;2023-02-08T02:59:57;1.50;99.90
1225;DHT22;602;48.000;7.840;2023-02-08T03:02:26;1.30;99.90
1225;DHT22;602;48.000;7.840;2023-02-08T03:05:02;1.30;99.90
1225;DHT22;602;48.000;7.840;2023-02-08T03:07:52;1.40;99.90
1225;DHT22;602;48.000;7.840;2023-02-08T03:13:27;1.30;99.90
1225;DHT22;602;48.000;7.840;2023-02-08T03:16:10;1.20;99.90
1225;DHT22;602;48.000;7.840;2023-02-08T03:18:54;1.10;99.90
1225;DHT22;602;48.000;7.840;2023-02-08T03:21:37;1.00;99.90
1225;DHT22;602;48.000;7.840;2023-02-08T03:24:21;1.00;99.90
1225;DHT22;602;48.000;7.840;2023-02-08T03:27:00;1.10;99.90
1225;DHT22;602;48.000;7.840;2023-02-08T03:29:46;1.00;99.90
1225;DHT22;602;48.000;7.840;2023-02-08T03:32:22;1.00;99.90
1225;DHT22;602;48.000;7.840;2023-02-08T03:34:57;1.00;99.90
1225;DHT22;602;48.000;7.840;2023-02-08T03:37:40;0.90;99.90
1225;DHT22;602;48.000;7.840;2023-02-08T03:40:15;0.90;99.90
1225;DHT22;602;48.000;7.840;2023-02-08T03:42:44;0.80;99.90
1225;DHT22;602;48.000;7.840;2023-02-08T03:45:17;0.80;99.90
1225;DHT22;602;48.000;7.840;2023-02-08T03:47:47;0.80;99.90
1225;DHT22;602;48.000;7.840;2023-02-08T03:50:16;0.80;99.90
1225;DHT22;602;48.000;7.840;2023-02-08T03:52:48;0.80;99.90
1225;DHT22;602;48.000;7.840;2023-02-08T03:55:19;0.80;99.90
1225;DHT22;602;48.000;7.840;2023-02-08T03:57:51;0.70;99.90
1225;DHT22;602;48.000;7.840;2023-02-08T04:00:19;0.70;99.90
1225;DHT22;602;48.000;7.840;2023-02-08T04:02:56;0.70;99.90
1225;DHT22;602;48.000;7.840;2023-02-08T04:05:24;0.70;99.90
1225;DHT22;602;48.000;7.840;2023-02-08T04:07:52;0.70;99.90
1225;DHT22;602;48.000;7.840;2023-02-08T04:10:20;0.70;99.90
1225;DHT22;602;48.000;7.840;2023-02-08T04:12:50;0.70;99.90
1225;DHT22;602;48.000;7.840;2023-02-08T04:15:17;0.60;99.90
1225;DHT22;602;48.000;7.840;2023-02-08T04:17:44;0.60;99.90
1225;DHT22;602;48.000;7.840;2023-02-08T04:20:11;0.60;99.90
1225;DHT22;602;48.000;7.840;2023-02-08T04:22:39;0.70;99.90
1225;DHT22;602;48.000;7.840;2023-02-08T04:25:07;0.50;99.90
1225;DHT22;602;48.000;7.840;2023-02-08T04:27:34;0.50;99.90
1225;DHT22;602;48.000;7.840;2023-02-08T04:30:01;0.60;99.90
1225;DHT22;602;48.000;7.840;2023-02-08T04:32:28;0.50;99.90
1225;DHT22;602;48.000;7.840;2023-02-08T04:34:56;0.50;99.90
1225;DHT22;602;48.000;7.840;2023-02-08T04:37:23;0.40;99.90
1225;DHT22;602;48.000;7.840;2023-02-08T04:39:50;0.40;99.90
1225;DHT22;602;48.000;7.840;2023-02-08T04:42:20;0.40;99.90
1225;DHT22;602;48.000;7.840;2023-02-08T04:44:47;0.40;99.90
1225;DHT22;602;48.000;7.840;2023-02-08T04:47:14;0.30;99.90
1225;DHT22;602;48.000;7.840;2023-02-08T04:49:41;0.20;99.90
1225;DHT22;602;48.000;7.840;2023-02-08T04:52:08;0.20;99.90
1225;DHT22;602;48.000;7.840;2023-02-08T04:54:35;0.10;99.90
1225;DHT22;602;48.000;7.840;2023-02-08T04:57:02;0.10;99.90
1225;DHT22;602;48.000;7.840;2023-02-08T04:59:30;0.10;99.90
1225;DHT22;602;48.000;7.840;2023-02-08T05:01:57;0.10;99.90
1225;DHT22;602;48.000;7.840;2023-02-08T05:04:24;0.00;99.90
1225;DHT22;602;48.000;7.840;2023-02-08T05:06:52;0.00;99.90
1225;DHT22;602;48.000;7.840;2023-02-08T05:09:19;0.10;99.90
1225;DHT22;602;48.000;7.840;2023-02-08T05:11:48;0.00;99.90
1225;DHT22;602;48.000;7.840;2023-02-08T05:14:15;0.00;99.90
1225;DHT22;602;48.000;7.840;2023-02-08T05:16:43;0.00;99.90
1225;DHT22;602;48.000;7.840;2023-02-08T05:19:10;0.00;99.90
1225;DHT22;602;48.000;7.840;2023-02-08T05:21:37;-0.10;99.90
1225;DHT22;602;48.000;7.840;2023-02-08T05:24:05;-0.20;99.90
1225;DHT22;602;48.000;7.840;2023-02-08T05:26:52;-0.10;99.90
1225;DHT22;602;48.000;7.840;2023-02-08T05:29:22;-0.20;99.90
1225;DHT22;602;48.000;7.840;2023-02-08T06:01:36;-0.70;99.90
1225;DHT22;602;48.000;7.840;2023-02-08T06:11:13;-1.00;99.90
1225;DHT22;602;48.000;7.840;2023-02-08T06:44:21;-0.90;99.90
1225;DHT22;602;48.000;7.840;2023-02-08T06:46:48;-0.90;99.90
1225;DHT22;602;48.000;7.840;2023-02-08T06:49:15;-0.90;99.90
1225;DHT22;602;48.000;7.840;2023-02-08T06:51:42;-0.90;99.90
1225;DHT22;602;48.000;7.840;2023-02-08T06:54:09;-1.00;99.90
1225;DHT22;602;48.000;7.840;2023-02-08T06:56:36;-0.90;99.90
1225;DHT22;602;48.000;7.840;2023-02-08T06:59:03;-0.90;99.90
1225;DHT22;602;48.000;7.840;2023-02-08T07:01:31;-0.80;99.90
1225;DHT22;602;48.000;7.840;2023-02-08T07:03:58;-0.90;99.90
1225;DHT22;602;48.000;7.840;2023-02-08T07:06:25;-0.90;99.90
1225;DHT22;602;48.000;7.840;2023-02-08T07:08:52;-1.00;99.90
1225;DHT22;602;48.000;7.840;2023-02-08T07:11:20;-0.90;99.90
1225;DHT22;602;48.000;7.840;2023-02-08T07:13:47;-0.80;99.90
1225;DHT22;602;48.000;7.840;2023-02-08T07:16:15;-0.80;99.90
1225;DHT22;602;48.000;7.840;2023-02-08T07:18:44;-0.90;99.90
1225;DHT22;602;48.000;7.840;2023-02-08T07:21:11;-0.80;99.90
1225;DHT22;602;48.000;7.840;2023-02-08T07:23:38;-0.80;99.90
1225;DHT22;602;48.000;7.840;2023-02-08T07:26:07;-0.90;99.90
1225;DHT22;602;48.000;7.840;2023-02-08T07:28:35;-0.80;99.90
1225;DHT22;602;48.000;7.840;2023-02-08T07:31:04;-0.90;99.90
1225;DHT22;602;48.000;7.840;2023-02-08T07:33:31;-0.90;99.90
1225;DHT22;602;48.000;7.840;2023-02-08T07:35:59;-0.90;99.90
1225;DHT22;602;48.000;7.840;2023-02-08T07:38:27;-0.90;99.90
1225;DHT22;602;48.000;7.840;2023-02-08T07:41:00;-0.70;99.90
1225;DHT22;602;48.000;7.840;2023-02-08T07:43:27;0.00;99.90
1225;DHT22;602;48.000;7.840;2023-02-08T07:45:54;0.20;99.90
1225;DHT22;602;48.000;7.840;2023-02-08T07:48:20;0.10;99.90
1225;DHT22;602;48.000;7.840;2023-02-08T07:50:48;0.00;99.90
1225;DHT22;602;48.000;7.840;2023-02-08T07:53:16;-0.10;99.90
1225;DHT22;602;48.000;7.840;2023-02-08T07:55:44;-0.10;99.90
1225;DHT22;602;48.000;7.840;2023-02-08T07:58:12;-0.10;99.90
1225;DHT22;602;48.000;7.840;2023-02-08T08:00:39;-0.10;99.90
1225;DHT22;602;48.000;7.840;2023-02-08T08:03:06;-0.20;99.90
1225;DHT22;602;48.000;7.840;2023-02-08T08:05:33;-0.20;99.90
1225;DHT22;602;48.000;7.840;2023-02-08T08:08:00;0.00;99.90
1225;DHT22;602;48.000;7.840;2023-02-08T08:10:29;0.10;99.90
1225;DHT22;602;48.000;7.840;2023-02-08T08:13:15;0.20;99.90
1225;DHT22;602;48.000;7.840;2023-02-08T08:15:56;0.30;99.90
1225;DHT22;602;48.000;7.840;2023-02-08T08:21:21;0.60;99.90
1225;DHT22;602;48.000;7.840;2023-02-08T08:23:53;0.90;99.90
1225;DHT22;602;48.000;7.840;2023-02-08T08:29:58;1.50;99.90
1225;DHT22;602;48.000;7.840;2023-02-08T08:32:39;1.80;99.90
1225;DHT22;602;48.000;7.840;2023-02-08T08:35:08;2.20;99.90
1225;DHT22;602;48.000;7.840;2023-02-08T08:37:37;2.40;99.90
1225;DHT22;602;48.000;7.840;2023-02-08T08:40:06;2.70;99.90
1225;DHT22;602;48.000;7.840;2023-02-08T08:42:34;3.00;99.90
1225;DHT22;602;48.000;7.840;2023-02-08T08:45:03;3.30;99.90
1225;DHT22;602;48.000;7.840;2023-02-08T08:47:30;3.50;99.90
1225;DHT22;602;48.000;7.840;2023-02-08T08:49:58;3.70;99.90
1225;DHT22;602;48.000;7.840;2023-02-08T08:52:24;4.00;99.90
1225;DHT22;602;48.000;7.840;2023-02-08T08:54:51;4.20;99.90
1225;DHT22;602;48.000;7.840;2023-02-08T08:57:18;4.60;99.90
1225;DHT22;602;48.000;7.840;2023-02-08T08:59:45;4.90;99.90
1225;DHT22;602;48.000;7.840;2023-02-08T09:02:14;5.20;99.90
1225;DHT22;602;48.000;7.840;2023-02-08T09:04:41;5.40;99.90
1225;DHT22;602;48.000;7.840;2023-02-08T09:07:09;5.50;99.90
1225;DHT22;602;48.000;7.840;2023-02-08T09:09:36;5.60;99.90
1225;DHT22;602;48.000;7.840;2023-02-08T09:12:05;5.80;99.90
1225;DHT22;602;48.000;7.840;2023-02-08T09:14:35;5.90;99.90
1225;DHT22;602;48.000;7.840;2023-02-08T09:17:04;6.10;99.90
1225;DHT22;602;48.000;7.840;2023-02-08T09:19:32;6.20;99.90
1225;DHT22;602;48.000;7.840;2023-02-08T09:21:59;6.40;99.90
1225;DHT22;602;48.000;7.840;2023-02-08T09:24:26;6.20;99.90
1225;DHT22;602;48.000;7.840;2023-02-08T09:26:56;6.20;99.90
1225;DHT22;602;48.000;7.840;2023-02-08T09:29:28;6.40;99.90
1225;DHT22;602;48.000;7.840;2023-02-08T09:31:57;6.40;99.90
1225;DHT22;602;48.000;7.840;2023-02-08T09:34:24;6.50;99.90
1225;DHT22;602;48.000;7.840;2023-02-08T09:36:58;6.70;99.90
1225;DHT22;602;48.000;7.840;2023-02-08T09:39:32;6.70;99.90
1225;DHT22;602;48.000;7.840;2023-02-08T09:42:27;6.80;99.90
1225;DHT22;602;48.000;7.840;2023-02-08T09:45:18;6.30;99.90
1225;DHT22;602;48.000;7.840;2023-02-08T09:47:53;6.70;99.90
1225;DHT22;602;48.000;7.840;2023-02-08T09:50:29;7.00;99.90
1225;DHT22;602;48.000;7.840;2023-02-08T09:53:07;7.00;99.90
1225;DHT22;602;48.000;7.840;2023-02-08T09:55:41;7.20;99.90
1225;DHT22;602;48.000;7.840;2023-02-08T09:58:16;7.50;99.90
1225;DHT22;602;48.000;7.840;2023-02-08T10:00:47;7.50;99.90
1225;DHT22;602;48.000;7.840;2023-02-08T10:03:26;7.50;99.90
1225;DHT22;602;48.000;7.840;2023-02-08T10:05:55;7.90;99.90
1225;DHT22;602;48.000;7.840;2023-02-08T10:08:23;8.10;99.90
1225;DHT22;602;48.000;7.840;2023-02-08T10:10:54;8.20;99.90
1225;DHT22;602;48.000;7.840;2023-02-08T10:16:28;8.10;99.90
1225;DHT22;602;48.000;7.840;2023-02-08T10:19:06;8.10;99.90
1225;DHT22;602;48.000;7.840;2023-02-08T10:21:47;8.00;99.90
1225;DHT22;602;48.000;7.840;2023-02-08T10:24:35;8.30;99.90
1225;DHT22;602;48.000;7.840;2023-02-08T10:27:12;8.70;99.90
1225;DHT22;602;48.000;7.840;2023-02-08T10:29:55;8.80;99.90
1225;DHT22;602;48.000;7.840;2023-02-08T10:35:23;8.70;99.90
1225;DHT22;602;48.000;7.840;2023-02-08T10:37:51;9.00;99.90
1225;DHT22;602;48.000;7.840;2023-02-08T10:40:30;9.20;99.90
1225;DHT22;602;48.000;7.840;2023-02-08T10:43:13;9.20;99.90
1225;DHT22;602;48.000;7.840;2023-02-08T10:45:45;9.10;99.90
1225;DHT22;602;48.000;7.840;2023-02-08T10:48:16;9.10;99.90
1225;DHT22;602;48.000;7.840;2023-02-08T10:50:46;9.40;99.90
1225;DHT22;602;48.000;7.840;2023-02-08T10:53:15;9.60;99.90
1225;DHT22;602;48.000;7.840;2023-02-08T10:55:45;9.40;98.90
1225;DHT22;602;48.000;7.840;2023-02-08T10:58:15;9.30;99.90
1225;DHT22;602;48.000;7.840;2023-02-08T11:00:43;9.60;99.50
1225;DHT22;602;48.000;7.840;2023-02-08T11:03:15;9.70;98.90
1225;DHT22;602;48.000;7.840;2023-02-08T11:05:43;9.70;99.30
1225;DHT22;602;48.000;7.840;2023-02-08T11:08:12;9.50;97.70
1225;DHT22;602;48.000;7.840;2023-02-08T11:10:45;9.40;98.20
1225;DHT22;602;48.000;7.840;2023-02-08T11:13:20;9.70;98.10
1225;DHT22;602;48.000;7.840;2023-02-08T11:15:50;10.00;97.50
1225;DHT22;602;48.000;7.840;2023-02-08T11:18:20;10.00;97.30
1225;DHT22;602;48.000;7.840;2023-02-08T11:20:50;10.20;96.30
1225;DHT22;602;48.000;7.840;2023-02-08T11:23:23;10.10;96.70
1225;DHT22;602;48.000;7.840;2023-02-08T11:25:53;10.00;96.00
1225;DHT22;602;48.000;7.840;2023-02-08T11:28:24;10.30;96.30
1225;DHT22;602;48.000;7.840;2023-02-08T11:30:59;10.00;96.10
1225;DHT22;602;48.000;7.840;2023-02-08T11:33:27;10.20;97.20
1225;DHT22;602;48.000;7.840;2023-02-08T11:36:03;10.40;95.90
1225;DHT22;602;48.000;7.840;2023-02-08T11:38:32;10.60;96.10
1225;DHT22;602;48.000;7.840;2023-02-08T11:41:03;10.80;95.90
1225;DHT22;602;48.000;7.840;2023-02-08T11:43:32;10.60;94.80
1225;DHT22;602;48.000;7.840;2023-02-08T11:46:02;10.40;95.30
1225;DHT22;602;48.000;7.840;2023-02-08T11:48:42;10.70;95.10
1225;DHT22;602;48.000;7.840;2023-02-08T11:51:22;10.60;95.50
1225;DHT22;602;48.000;7.840;2023-02-08T11:53:51;10.60;95.00
1225;DHT22;602;48.000;7.840;2023-02-08T11:56:25;10.60;94.40
1225;DHT22;602;48.000;7.840;2023-02-08T11:59:02;10.60;94.80
1225;DHT22;602;48.000;7.840;2023-02-08T12:01:34;10.50;94.30
1225;DHT22;602;48.000;7.840;2023-02-08T12:04:07;10.40;93.60
1225;DHT22;602;48.000;7.840;2023-02-08T12:07:08;10.40;94.00
1225;DHT22;602;48.000;7.840;2023-02-08T12:12:41;11.10;95.30
1225;DHT22;602;48.000;7.840;2023-02-08T12:15:21;11.50;95.30
1225;DHT22;602;48.000;7.840;2023-02-08T12:18:07;11.50;94.70
1225;DHT22;602;48.000;7.840;2023-02-08T12:20:40;11.70;95.30
1225;DHT22;602;48.000;7.840;2023-02-08T12:26:19;11.90;94.50
1225;DHT22;602;48.000;7.840;2023-02-08T12:32:05;12.40;94.60
1225;DHT22;602;48.000;7.840;2023-02-08T12:35:00;12.50;93.60
1225;DHT22;602;48.000;7.840;2023-02-08T12:37:40;12.70;92.90
1225;DHT22;602;48.000;7.840;2023-02-08T12:40:37;12.20;92.80
1225;DHT22;602;48.000;7.840;2023-02-08T12:43:26;12.00;93.10
1225;DHT22;602;48.000;7.840;2023-02-08T12:46:24;12.20;94.00
1225;DHT22;602;48.000;7.840;2023-02-08T12:49:21;11.90;93.30
1225;DHT22;602;48.000;7.840;2023-02-08T12:51:59;12.20;93.80
1225;DHT22;602;48.000;7.840;2023-02-08T12:54:32;12.10;93.40
1225;DHT22;602;48.000;7.840;2023-02-08T12:57:02;12.20;92.80
1225;DHT22;602;48.000;7.840;2023-02-08T12:59:36;12.10;92.60
1225;DHT22;602;48.000;7.840;2023-02-08T13:02:12;12.20;92.80
1225;DHT22;602;48.000;7.840;2023-02-08T13:04:45;12.30;92.90
1225;DHT22;602;48.000;7.840;2023-02-08T13:07:18;12.20;93.00
1225;DHT22;602;48.000;7.840;2023-02-08T13:09:51;12.10;92.60
1225;DHT22;602;48.000;7.840;2023-02-08T13:12:22;12.20;92.90
1225;DHT22;602;48.000;7.840;2023-02-08T13:14:53;12.10;92.30
1225;DHT22;602;48.000;7.840;2023-02-08T13:17:26;12.20;92.90
1225;DHT22;602;48.000;7.840;2023-02-08T13:19:57;12.10;92.60
1225;DHT22;602;48.000;7.840;2023-02-08T13:22:26;12.20;92.20
1225;DHT22;602;48.000;7.840;2023-02-08T13:24:54;12.20;92.20
1225;DHT22;602;48.000;7.840;2023-02-08T13:27:22;12.30;92.00
1225;DHT22;602;48.000;7.840;2023-02-08T13:29:51;12.40;91.80
1225;DHT22;602;48.000;7.840;2023-02-08T13:32:23;12.30;91.80
1225;DHT22;602;48.000;7.840;2023-02-08T13:34:58;12.30;91.80
1225;DHT22;602;48.000;7.840;2023-02-08T13:37:29;12.20;91.60
1225;DHT22;602;48.000;7.840;2023-02-08T13:40:00;12.10;91.30
1225;DHT22;602;48.000;7.840;2023-02-08T13:42:32;12.00;91.20
1225;DHT22;602;48.000;7.840;2023-02-08T13:45:00;12.10;91.40
1225;DHT22;602;48.000;7.840;2023-02-08T13:47:32;12.10;91.10
1225;DHT22;602;48.000;7.840;2023-02-08T13:50:00;11.80;91.50
1225;DHT22;602;48.000;7.840;2023-02-08T13:52:49;11.70;91.60
1225;DHT22;602;48.000;7.840;2023-02-08T14:01:20;11.10;92.00
1225;DHT22;602;48.000;7.840;2023-02-08T14:07:05;10.90;91.70
1225;DHT22;602;48.000;7.840;2023-02-08T14:09:45;10.80;92.40
1225;DHT22;602;48.000;7.840;2023-02-08T14:12:21;10.70;92.30
1225;DHT22;602;48.000;7.840;2023-02-08T14:15:24;10.60;92.30
1225;DHT22;602;48.000;7.840;2023-02-08T14:17:53;10.20;92.70
1225;DHT22;602;48.000;7.840;2023-02-08T14:20:24;10.20;92.70
1225;DHT22;602;48.000;7.840;2023-02-08T14:22:55;10.30;92.60
1225;DHT22;602;48.000;7.840;2023-02-08T14:25:25;10.20;93.00
1225;DHT22;602;48.000;7.840;2023-02-08T14:27:55;10.10;93.20
1225;DHT22;602;48.000;7.840;2023-02-08T14:30:26;9.90;93.70
1225;DHT22;602;48.000;7.840;2023-02-08T14:33:10;9.90;94.00
1225;DHT22;602;48.000;7.840;2023-02-08T14:35:42;9.90;93.90
1225;DHT22;602;48.000;7.840;2023-02-08T14:41:43;9.60;94.30
1225;DHT22;602;48.000;7.840;2023-02-08T14:50:31;9.20;94.60
1225;DHT22;602;48.000;7.840;2023-02-08T14:55:48;9.00;94.40
1225;DHT22;602;48.000;7.840;2023-02-08T14:58:26;8.60;94.70
1225;DHT22;602;48.000;7.840;2023-02-08T15:00:56;8.60;95.30
1225;DHT22;602;48.000;7.840;2023-02-08T15:03:26;8.60;95.20
1225;DHT22;602;48.000;7.840;2023-02-08T15:06:12;8.60;95.30
1225;DHT22;602;48.000;7.840;2023-02-08T15:08:48;8.50;96.00
1225;DHT22;602;48.000;7.840;2023-02-08T15:11:20;8.60;95.60
1225;DHT22;602;48.000;7.840;2023-02-08T15:13:50;8.30;95.70
1225;DHT22;602;48.000;7.840;2023-02-08T15:16:18;8.30;96.10
1225;DHT22;602;48.000;7.840;2023-02-08T15:18:46;8.30;96.20
1225;DHT22;602;48.000;7.840;2023-02-08T15:21:16;8.30;96.20
1225;DHT22;602;48.000;7.840;2023-02-08T15:23:57;8.10;96.10
1225;DHT22;602;48.000;7.840;2023-02-08T15:26:24;7.90;96.90
1225;DHT22;602;48.000;7.840;2023-02-08T15:28:53;7.90;97.30
1225;DHT22;602;48.000;7.840;2023-02-08T15:31:22;7.80;97.20
1225;DHT22;602;48.000;7.840;2023-02-08T15:33:52;7.80;97.40
1225;DHT22;602;48.000;7.840;2023-02-08T15:36:24;7.70;97.20
1225;DHT22;602;48.000;7.840;2023-02-08T15:38:53;7.60;97.30
1225;DHT22;602;48.000;7.840;2023-02-08T15:41:24;7.60;97.20
1225;DHT22;602;48.000;7.840;2023-02-08T15:44:01;7.50;97.40
1225;DHT22;602;48.000;7.840;2023-02-08T15:46:29;7.50;97.50
1225;DHT22;602;48.000;7.840;2023-02-08T15:48:57;7.50;97.60
1225;DHT22;602;48.000;7.840;2023-02-08T15:51:25;7.30;97.70
1225;DHT22;602;48.000;7.840;2023-02-08T15:53:53;7.30;97.80
1225;DHT22;602;48.000;7.840;2023-02-08T15:56:23;7.20;98.00
1225;DHT22;602;48.000;7.840;2023-02-08T15:58:54;7.20;98.10
1225;DHT22;602;48.000;7.840;2023-02-08T16:01:23;7.20;98.00
1225;DHT22;602;48.000;7.840;2023-02-08T16:03:53;7.10;97.90
1225;DHT22;602;48.000;7.840;2023-02-08T16:06:24;6.90;98.20
1225;DHT22;602;48.000;7.840;2023-02-08T16:08:53;7.00;98.60
1225;DHT22;602;48.000;7.840;2023-02-08T16:11:24;7.00;98.70
1225;DHT22;602;48.000;7.840;2023-02-08T16:13:54;7.00;98.90
1225;DHT22;602;48.000;7.840;2023-02-08T16:16:25;7.00;98.90
1225;DHT22;602;48.000;7.840;2023-02-08T16:19:03;6.90;99.00
1225;DHT22;602;48.000;7.840;2023-02-08T16:21:34;6.90;98.90
1225;DHT22;602;48.000;7.840;2023-02-08T16:24:05;6.80;98.60
1225;DHT22;602;48.000;7.840;2023-02-08T16:26:35;6.80;99.10
1225;DHT22;602;48.000;7.840;2023-02-08T16:29:16;6.80;99.50
1225;DHT22;602;48.000;7.840;2023-02-08T16:31:46;6.60;99.60
1225;DHT22;602;48.000;7.840;2023-02-08T16:34:16;6.50;99.70
1225;DHT22;602;48.000;7.840;2023-02-08T16:36:46;6.40;99.90
1225;DHT22;602;48.000;7.840;2023-02-08T16:39:36;6.40;99.90
1225;DHT22;602;48.000;7.840;2023-02-08T16:42:22;6.30;99.90
1225;DHT22;602;48.000;7.840;2023-02-08T16:45:14;6.30;99.90
1225;DHT22;602;48.000;7.840;2023-02-08T16:47:44;6.20;99.90
1225;DHT22;602;48.000;7.840;2023-02-08T16:50:13;6.20;99.90
1225;DHT22;602;48.000;7.840;2023-02-08T16:52:41;6.10;99.90
1225;DHT22;602;48.000;7.840;2023-02-08T16:55:15;6.10;99.90
1225;DHT22;602;48.000;7.840;2023-02-08T16:57:45;5.90;99.90
1225;DHT22;602;48.000;7.840;2023-02-08T17:00:18;5.90;99.90
1225;DHT22;602;48.000;7.840;2023-02-08T17:02:47;5.90;99.90
1225;DHT22;602;48.000;7.840;2023-02-08T17:05:15;5.90;99.90
1225;DHT22;602;48.000;7.840;2023-02-08T17:07:42;5.70;99.90
1225;DHT22;602;48.000;7.840;2023-02-08T17:10:20;5.50;99.90
1225;DHT22;602;48.000;7.840;2023-02-08T17:12:48;5.40;99.90
1225;DHT22;602;48.000;7.840;2023-02-08T17:15:15;5.30;99.90
1225;DHT22;602;48.000;7.840;2023-02-08T17:17:42;5.30;99.90
1225;DHT22;602;48.000;7.840;2023-02-08T17:20:19;5.20;99.90
1225;DHT22;602;48.000;7.840;2023-02-08T17:22:46;5.00;99.90
1225;DHT22;602;48.000;7.840;2023-02-08T17:25:13;5.00;99.90
1225;DHT22;602;48.000;7.840;2023-02-08T17:27:48;5.00;99.90
1225;DHT22;602;48.000;7.840;2023-02-08T17:30:22;4.80;99.90
1225;DHT22;602;48.000;7.840;2023-02-08T17:32:50;4.90;99.90
1225;DHT22;602;48.000;7.840;2023-02-08T17:35:19;4.80;99.90
1225;DHT22;602;48.000;7.840;2023-02-08T17:37:48;4.80;99.90
1225;DHT22;602;48.000;7.840;2023-02-08T17:40:18;4.70;99.90
1225;DHT22;602;48.000;7.840;2023-02-08T17:42:46;4.60;99.90
1225;DHT22;602;48.000;7.840;2023-02-08T17:45:12;4.40;99.90
1225;DHT22;602;48.000;7.840;2023-02-08T17:47:39;4.20;99.90
1225;DHT22;602;48.000;7.840;2023-02-08T17:50:08;4.20;99.90
1225;DHT22;602;48.000;7.840;2023-02-08T17:52:37;4.20;99.90
1225;DHT22;602;48.000;7.840;2023-02-08T17:55:06;4.00;99.90
1225;DHT22;602;48.000;7.840;2023-02-08T17:57:35;3.90;99.90
1225;DHT22;602;48.000;7.840;2023-02-08T18:00:03;3.70;99.90
1225;DHT22;602;48.000;7.840;2023-02-08T18:02:30;3.70;99.90
1225;DHT22;602;48.000;7.840;2023-02-08T18:04:56;3.70;99.90
1225;DHT22;602;48.000;7.840;2023-02-08T18:07:23;3.60;99.90
1225;DHT22;602;48.000;7.840;2023-02-08T18:09:52;3.50;99.90
1225;DHT22;602;48.000;7.840;2023-02-08T18:12:18;3.40;99.90
1225;DHT22;602;48.000;7.840;2023-02-08T18:14:46;3.30;99.90
1225;DHT22;602;48.000;7.840;2023-02-08T18:17:13;3.10;99.90
1225;DHT22;602;48.000;7.840;2023-02-08T18:19:40;2.90;99.90
1225;DHT22;602;48.000;7.840;2023-02-08T18:22:07;3.00;99.90
1225;DHT22;602;48.000;7.840;2023-02-08T18:24:36;2.90;99.90
1225;DHT22;602;48.000;7.840;2023-02-08T18:27:05;3.00;99.90
1225;DHT22;602;48.000;7.840;2023-02-08T18:29:31;2.90;99.90
1225;DHT22;602;48.000;7.840;2023-02-08T18:31:58;2.90;99.90
1225;DHT22;602;48.000;7.840;2023-02-08T18:34:25;3.00;99.90
1225;DHT22;602;48.000;7.840;2023-02-08T18:36:52;3.00;99.90
1225;DHT22;602;48.000;7.840;2023-02-08T18:39:19;3.10;99.90
1225;DHT22;602;48.000;7.840;2023-02-08T18:41:48;3.30;99.90
1225;DHT22;602;48.000;7.840;2023-02-08T18:44:16;3.30;99.90
1225;DHT22;602;48.000;7.840;2023-02-08T18:46:44;3.20;99.90
1225;DHT22;602;48.000;7.840;2023-02-08T18:49:13;3.20;99.90
1225;DHT22;602;48.000;7.840;2023-02-08T18:51:40;3.30;99.90
1225;DHT22;602;48.000;7.840;2023-02-08T18:54:09;3.30;99.90
1225;DHT22;602;48.000;7.840;2023-02-08T18:56:38;3.30;99.90
1225;DHT22;602;48.000;7.840;2023-02-08T18:59:05;3.10;99.90
1225;DHT22;602;48.000;7.840;2023-02-08T19:01:34;3.00;99.90
1225;DHT22;602;48.000;7.840;2023-02-08T19:04:01;2.90;99.90
1225;DHT22;602;48.000;7.840;2023-02-08T19:06:30;3.00;99.90
1225;DHT22;602;48.000;7.840;2023-02-08T19:08:58;3.10;99.90
1225;DHT22;602;48.000;7.840;2023-02-08T19:11:28;3.20;99.90
1225;DHT22;602;48.000;7.840;2023-02-08T19:13:57;3.20;99.90
1225;DHT22;602;48.000;7.840;2023-02-08T19:16:24;3.20;99.90
1225;DHT22;602;48.000;7.840;2023-02-08T19:18:54;3.10;99.90